sensor_id;sensor_type;location;lat;lon;timestamp;temperature;humidity
14401;DHT22;7285;50.894;5.462;2024-01-27T00:01:52;0.60;1.00
14401;DHT22;7285;50.894;5.462;2024-01-27T00:04:20;0.60;1.00
14401;DHT22;7285;50.894;5.462;2024-01-27T00:06:48;0.50;1.00
14401;DHT22;7285;50.894;5.462;2024-01-27T00:09:16;0.50;1.00
14401;DHT22;7285;50.894;5.462;2024-01-27T00:11:43;0.60;1.00
14401;DHT22;7285;50.894;5.462;2024-01-27T00:14:10;0.60;1.00
14401;DHT22;7285;50.894;5.462;2024-01-27T00:16:37;0.60;1.00
14401;DHT22;7285;50.894;5.462;2024-01-27T00:19:04;0.50;1.00
14401;DHT22;7285;50.894;5.462;2024-01-27T00:21:30;0.40;1.00
14401;DHT22;7285;50.894;5.462;2024-01-27T00:23:57;0.40;1.00
14401;DHT22;7285;50.894;5.462;2024-01-27T00:26:28;0.40;1.00
14401;DHT22;7285;50.894;5.462;2024-01-27T00:28:54;0.30;1.00
14401;DHT22;7285;50.894;5.462;2024-01-27T00:31:22;0.40;1.00
14401;DHT22;7285;50.894;5.462;2024-01-27T00:33:49;0.30;1.00
14401;DHT22;7285;50.894;5.462;2024-01-27T00:36:16;0.30;1.00
14401;DHT22;7285;50.894;5.462;2024-01-27T00:38:43;0.30;1.00
14401;DHT22;7285;50.894;5.462;2024-01-27T00:41:16;0.20;1.00
14401;DHT22;7285;50.894;5.462;2024-01-27T00:43:45;0.20;1.00
14401;DHT22;7285;50.894;5.462;2024-01-27T00:46:12;0.20;1.00
14401;DHT22;7285;50.894;5.462;2024-01-27T00:48:39;0.10;1.00
14401;DHT22;7285;50.894;5.462;2024-01-27T00:51:05;0.10;1.00
14401;DHT22;7285;50.894;5.462;2024-01-27T00:53:32;0.10;1.00
14401;DHT22;7285;50.894;5.462;2024-01-27T00:55:59;0.10;1.00
14401;DHT22;7285;50.894;5.462;2024-01-27T00:58:27;0.00;1.00
14401;DHT22;7285;50.894;5.462;2024-01-27T01:00:55;0.00;1.00
14401;DHT22;7285;50.894;5.462;2024-01-27T01:03:22;0.00;1.00
14401;DHT22;7285;50.894;5.462;2024-01-27T01:05:49;-0.10;1.00
14401;DHT22;7285;50.894;5.462;2024-01-27T01:08:16;-0.10;1.00
14401;DHT22;7285;50.894;5.462;2024-01-27T01:10:43;-0.10;1.00
14401;DHT22;7285;50.894;5.462;2024-01-27T01:13:10;-0.10;1.90
14401;DHT22;7285;50.894;5.462;2024-01-27T01:15:37;-0.20;6.20
14401;DHT22;7285;50.894;5.462;2024-01-27T01:18:06;-0.20;7.40
14401;DHT22;7285;50.894;5.462;2024-01-27T01:20:33;-0.20;9.30
14401;DHT22;7285;50.894;5.462;2024-01-27T01:23:00;-0.20;13.50
14401;DHT22;7285;50.894;5.462;2024-01-27T01:25:27;-0.30;19.10
14401;DHT22;7285;50.894;5.462;2024-01-27T01:27:53;-0.30;20.00
14401;DHT22;7285;50.894;5.462;2024-01-27T01:30:20;-0.30;23.50
14401;DHT22;7285;50.894;5.462;2024-01-27T01:32:47;-0.30;28.30
14401;DHT22;7285;50.894;5.462;2024-01-27T01:35:15;-0.30;32.50
14401;DHT22;7285;50.894;5.462;2024-01-27T01:37:42;-0.30;29.30
14401;DHT22;7285;50.894;5.462;2024-01-27T01:40:10;-0.40;29.20
14401;DHT22;7285;50.894;5.462;2024-01-27T01:42:38;-0.40;37.40
14401;DHT22;7285;50.894;5.462;2024-01-27T01:45:05;-0.40;42.10
14401;DHT22;7285;50.894;5.462;2024-01-27T01:47:32;-0.40;52.20
14401;DHT22;7285;50.894;5.462;2024-01-27T01:49:59;-0.30;56.10
14401;DHT22;7285;50.894;5.462;2024-01-27T01:52:28;-0.40;61.70
14401;DHT22;7285;50.894;5.462;2024-01-27T01:54:55;-0.40;64.80
14401;DHT22;7285;50.894;5.462;2024-01-27T01:57:22;-0.40;75.10
14401;DHT22;7285;50.894;5.462;2024-01-27T01:59:49;-0.50;78.80
14401;DHT22;7285;50.894;5.462;2024-01-27T02:02:17;-0.40;85.00
14401;DHT22;7285;50.894;5.462;2024-01-27T02:04:45;-0.40;91.50
14401;DHT22;7285;50.894;5.462;2024-01-27T02:07:12;-0.40;97.00
14401;DHT22;7285;50.894;5.462;2024-01-27T02:09:40;-0.40;99.90
14401;DHT22;7285;50.894;5.462;2024-01-27T02:12:07;-0.50;99.90
14401;DHT22;7285;50.894;5.462;2024-01-27T02:14:34;-0.50;99.90
14401;DHT22;7285;50.894;5.462;2024-01-27T02:17:02;-0.50;99.90
14401;DHT22;7285;50.894;5.462;2024-01-27T02:19:29;-0.50;99.90
14401;DHT22;7285;50.894;5.462;2024-01-27T02:21:56;-0.50;99.90
14401;DHT22;7285;50.894;5.462;2024-01-27T02:24:25;-0.50;99.90
14401;DHT22;7285;50.894;5.462;2024-01-27T02:26:54;-0.50;99.90
14401;DHT22;7285;50.894;5.462;2024-01-27T02:29:21;-0.50;99.90
14401;DHT22;7285;50.894;5.462;2024-01-27T02:31:48;-0.50;99.90
14401;DHT22;7285;50.894;5.462;2024-01-27T02:34:15;-0.50;99.90
14401;DHT22;7285;50.894;5.462;2024-01-27T02:36:42;-0.60;99.90
14401;DHT22;7285;50.894;5.462;2024-01-27T02:39:09;-0.60;99.90
14401;DHT22;7285;50.894;5.462;2024-01-27T02:41:37;-0.60;99.90
14401;DHT22;7285;50.894;5.462;2024-01-27T02:44:05;-0.60;99.90
14401;DHT22;7285;50.894;5.462;2024-01-27T02:46:32;-0.70;99.90
14401;DHT22;7285;50.894;5.462;2024-01-27T02:48:59;-0.70;99.90
14401;DHT22;7285;50.894;5.462;2024-01-27T02:51:26;-0.70;99.90
14401;DHT22;7285;50.894;5.462;2024-01-27T02:53:53;-0.70;99.90
14401;DHT22;7285;50.894;5.462;2024-01-27T02:56:19;-0.70;99.90
14401;DHT22;7285;50.894;5.462;2024-01-27T02:58:48;-0.70;99.90
14401;DHT22;7285;50.894;5.462;2024-01-27T03:01:16;-0.70;99.90
14401;DHT22;7285;50.894;5.462;2024-01-27T03:03:43;-0.70;99.90
14401;DHT22;7285;50.894;5.462;2024-01-27T03:06:10;-0.70;99.90
14401;DHT22;7285;50.894;5.462;2024-01-27T03:08:36;-0.80;99.90
14401;DHT22;7285;50.894;5.462;2024-01-27T03:11:04;-0.80;99.90
14401;DHT22;7285;50.894;5.462;2024-01-27T03:13:31;-0.80;99.90
14401;DHT22;7285;50.894;5.462;2024-01-27T03:15:59;-0.80;99.90
14401;DHT22;7285;50.894;5.462;2024-01-27T03:18:26;-0.80;99.90
14401;DHT22;7285;50.894;5.462;2024-01-27T03:20:53;-0.80;99.90
14401;DHT22;7285;50.894;5.462;2024-01-27T03:23:20;-0.80;99.90
14401;DHT22;7285;50.894;5.462;2024-01-27T03:25:47;-0.80;99.90
14401;DHT22;7285;50.894;5.462;2024-01-27T03:28:13;-0.90;99.90
14401;DHT22;7285;50.894;5.462;2024-01-27T03:30:41;-0.80;99.90
14401;DHT22;7285;50.894;5.462;2024-01-27T03:33:10;-0.80;99.90
14401;DHT22;7285;50.894;5.462;2024-01-27T03:35:38;-0.90;99.90
14401;DHT22;7285;50.894;5.462;2024-01-27T03:38:05;-0.90;99.90
14401;DHT22;7285;50.894;5.462;2024-01-27T03:40:32;-1.00;99.90
14401;DHT22;7285;50.894;5.462;2024-01-27T03:42:59;-0.90;99.90
14401;DHT22;7285;50.894;5.462;2024-01-27T03:45:26;-0.90;99.90
14401;DHT22;7285;50.894;5.462;2024-01-27T03:47:53;-0.90;99.90
14401;DHT22;7285;50.894;5.462;2024-01-27T03:50:21;-1.00;99.90
14401;DHT22;7285;50.894;5.462;2024-01-27T03:52:48;-1.00;99.90
14401;DHT22;7285;50.894;5.462;2024-01-27T03:55:15;-1.00;99.90
14401;DHT22;7285;50.894;5.462;2024-01-27T03:57:42;-1.00;99.90
14401;DHT22;7285;50.894;5.462;2024-01-27T04:00:10;-1.00;99.90
14401;DHT22;7285;50.894;5.462;2024-01-27T04:02:38;-1.00;99.90
14401;DHT22;7285;50.894;5.462;2024-01-27T04:05:06;-1.00;99.90
14401;DHT22;7285;50.894;5.462;2024-01-27T04:07:34;-1.00;99.90
14401;DHT22;7285;50.894;5.462;2024-01-27T04:10:02;-1.00;99.90
14401;DHT22;7285;50.894;5.462;2024-01-27T04:12:30;-1.00;99.90
14401;DHT22;7285;50.894;5.462;2024-01-27T04:14:58;-1.10;99.90
14401;DHT22;7285;50.894;5.462;2024-01-27T04:17:25;-1.10;99.90
14401;DHT22;7285;50.894;5.462;2024-01-27T04:19:52;-1.20;99.90
14401;DHT22;7285;50.894;5.462;2024-01-27T04:22:19;-1.10;99.90
14401;DHT22;7285;50.894;5.462;2024-01-27T04:24:47;-1.10;99.90
14401;DHT22;7285;50.894;5.462;2024-01-27T04:27:14;-1.10;99.90
14401;DHT22;7285;50.894;5.462;2024-01-27T04:29:42;-1.20;99.90
14401;DHT22;7285;50.894;5.462;2024-01-27T04:32:08;-1.20;99.90
14401;DHT22;7285;50.894;5.462;2024-01-27T04:34:35;-1.20;99.90
14401;DHT22;7285;50.894;5.462;2024-01-27T04:37:03;-1.20;99.90
14401;DHT22;7285;50.894;5.462;2024-01-27T04:39:30;-1.20;99.90
14401;DHT22;7285;50.894;5.462;2024-01-27T04:41:58;-1.30;99.90
14401;DHT22;7285;50.894;5.462;2024-01-27T04:44:25;-1.30;99.90
14401;DHT22;7285;50.894;5.462;2024-01-27T04:46:52;-1.30;99.90
14401;DHT22;7285;50.894;5.462;2024-01-27T04:49:19;-1.30;99.90
14401;DHT22;7285;50.894;5.462;2024-01-27T04:51:47;-1.40;99.90
14401;DHT22;7285;50.894;5.462;2024-01-27T04:54:14;-1.30;99.90
14401;DHT22;7285;50.894;5.462;2024-01-27T04:56:41;-1.30;99.90
14401;DHT22;7285;50.894;5.462;2024-01-27T04:59:09;-1.40;99.90
14401;DHT22;7285;50.894;5.462;2024-01-27T05:01:36;-1.40;99.90
14401;DHT22;7285;50.894;5.462;2024-01-27T05:04:03;-1.40;99.90
14401;DHT22;7285;50.894;5.462;2024-01-27T05:06:30;-1.40;99.90
14401;DHT22;7285;50.894;5.462;2024-01-27T05:08:57;-1.40;99.90
14401;DHT22;7285;50.894;5.462;2024-01-27T05:11:30;-1.50;99.90
14401;DHT22;7285;50.894;5.462;2024-01-27T05:13:57;-1.50;99.90
14401;DHT22;7285;50.894;5.462;2024-01-27T05:16:26;-1.40;99.90
14401;DHT22;7285;50.894;5.462;2024-01-27T05:18:53;-1.50;99.90
14401;DHT22;7285;50.894;5.462;2024-01-27T05:21:20;-1.50;99.90
14401;DHT22;7285;50.894;5.462;2024-01-27T05:23:47;-1.50;99.90
14401;DHT22;7285;50.894;5.462;2024-01-27T05:26:14;-1.50;99.90
14401;DHT22;7285;50.894;5.462;2024-01-27T05:28:41;-1.50;99.90
14401;DHT22;7285;50.894;5.462;2024-01-27T05:31:08;-1.50;99.90
14401;DHT22;7285;50.894;5.462;2024-01-27T05:33:37;-1.50;99.90
14401;DHT22;7285;50.894;5.462;2024-01-27T05:36:05;-1.50;99.90
14401;DHT22;7285;50.894;5.462;2024-01-27T05:38:32;-1.50;99.90
14401;DHT22;7285;50.894;5.462;2024-01-27T05:41:00;-1.60;99.90
14401;DHT22;7285;50.894;5.462;2024-01-27T05:43:27;-1.50;99.90
14401;DHT22;7285;50.894;5.462;2024-01-27T05:45:55;-1.60;99.90
14401;DHT22;7285;50.894;5.462;2024-01-27T05:48:22;-1.60;99.90
14401;DHT22;7285;50.894;5.462;2024-01-27T05:50:57;-1.60;99.90
14401;DHT22;7285;50.894;5.462;2024-01-27T05:53:24;-1.60;99.90
14401;DHT22;7285;50.894;5.462;2024-01-27T05:55:51;-1.70;99.90
14401;DHT22;7285;50.894;5.462;2024-01-27T05:58:18;-1.60;99.90
14401;DHT22;7285;50.894;5.462;2024-01-27T06:00:46;-1.60;99.90
14401;DHT22;7285;50.894;5.462;2024-01-27T06:03:13;-1.60;99.90
14401;DHT22;7285;50.894;5.462;2024-01-27T06:05:42;-1.70;99.90
14401;DHT22;7285;50.894;5.462;2024-01-27T06:08:11;-1.70;99.90
14401;DHT22;7285;50.894;5.462;2024-01-27T06:10:37;-1.70;99.90
14401;DHT22;7285;50.894;5.462;2024-01-27T06:13:04;-1.70;99.90
14401;DHT22;7285;50.894;5.462;2024-01-27T06:15:31;-1.70;99.90
14401;DHT22;7285;50.894;5.462;2024-01-27T06:17:58;-1.60;99.90
14401;DHT22;7285;50.894;5.462;2024-01-27T06:20:25;-1.70;99.90
14401;DHT22;7285;50.894;5.462;2024-01-27T06:22:52;-1.60;99.90
14401;DHT22;7285;50.894;5.462;2024-01-27T06:25:21;-1.70;99.90
14401;DHT22;7285;50.894;5.462;2024-01-27T06:27:49;-1.70;99.90
14401;DHT22;7285;50.894;5.462;2024-01-27T06:30:16;-1.70;99.90
14401;DHT22;7285;50.894;5.462;2024-01-27T06:32:43;-1.70;99.90
14401;DHT22;7285;50.894;5.462;2024-01-27T06:35:10;-1.70;99.90
14401;DHT22;7285;50.894;5.462;2024-01-27T06:37:37;-1.70;99.90
14401;DHT22;7285;50.894;5.462;2024-01-27T06:40:05;-1.80;99.90
14401;DHT22;7285;50.894;5.462;2024-01-27T06:42:34;-1.70;99.90
14401;DHT22;7285;50.894;5.462;2024-01-27T06:45:01;-1.70;99.90
14401;DHT22;7285;50.894;5.462;2024-01-27T06:47:29;-1.80;99.90
14401;DHT22;7285;50.894;5.462;2024-01-27T06:49:56;-1.80;99.90
14401;DHT22;7285;50.894;5.462;2024-01-27T06:52:24;-1.80;99.90
14401;DHT22;7285;50.894;5.462;2024-01-27T06:54:51;-1.80;99.90
14401;DHT22;7285;50.894;5.462;2024-01-27T06:57:19;-1.80;99.90
14401;DHT22;7285;50.894;5.462;2024-01-27T06:59:48;-1.80;99.90
14401;DHT22;7285;50.894;5.462;2024-01-27T07:02:18;-1.90;99.90
14401;DHT22;7285;50.894;5.462;2024-01-27T07:04:45;-1.90;99.90
14401;DHT22;7285;50.894;5.462;2024-01-27T07:07:12;-1.90;99.90
14401;DHT22;7285;50.894;5.462;2024-01-27T07:09:41;-1.90;99.90
14401;DHT22;7285;50.894;5.462;2024-01-27T07:12:08;-1.90;99.90
14401;DHT22;7285;50.894;5.462;2024-01-27T07:14:35;-1.80;99.90
14401;DHT22;7285;50.894;5.462;2024-01-27T07:17:04;-1.80;99.90
14401;DHT22;7285;50.894;5.462;2024-01-27T07:19:31;-1.80;99.90
14401;DHT22;7285;50.894;5.462;2024-01-27T07:21:58;-1.80;99.90
14401;DHT22;7285;50.894;5.462;2024-01-27T07:24:25;-1.80;99.90
14401;DHT22;7285;50.894;5.462;2024-01-27T07:26:52;-1.80;99.90
14401;DHT22;7285;50.894;5.462;2024-01-27T07:29:19;-1.80;99.90
14401;DHT22;7285;50.894;5.462;2024-01-27T07:31:47;-1.70;99.90
14401;DHT22;7285;50.894;5.462;2024-01-27T07:34:16;-1.70;99.90
14401;DHT22;7285;50.894;5.462;2024-01-27T07:36:43;-1.70;99.90
14401;DHT22;7285;50.894;5.462;2024-01-27T07:39:10;-1.70;99.90
14401;DHT22;7285;50.894;5.462;2024-01-27T07:41:37;-1.60;99.90
14401;DHT22;7285;50.894;5.462;2024-01-27T07:44:07;-1.50;99.90
14401;DHT22;7285;50.894;5.462;2024-01-27T07:46:35;-1.40;99.90
14401;DHT22;7285;50.894;5.462;2024-01-27T07:49:02;-1.20;99.90
14401;DHT22;7285;50.894;5.462;2024-01-27T07:51:31;-1.10;99.90
14401;DHT22;7285;50.894;5.462;2024-01-27T07:53:58;-1.00;99.90
14401;DHT22;7285;50.894;5.462;2024-01-27T07:56:25;-1.10;99.90
14401;DHT22;7285;50.894;5.462;2024-01-27T07:58:52;-1.10;99.90
14401;DHT22;7285;50.894;5.462;2024-01-27T08:01:19;-1.10;99.90
14401;DHT22;7285;50.894;5.462;2024-01-27T08:03:46;-1.00;99.90
14401;DHT22;7285;50.894;5.462;2024-01-27T08:06:15;-1.10;99.90
14401;DHT22;7285;50.894;5.462;2024-01-27T08:08:45;-1.00;99.90
14401;DHT22;7285;50.894;5.462;2024-01-27T08:11:13;-0.90;99.90
14401;DHT22;7285;50.894;5.462;2024-01-27T08:13:40;-0.90;99.90
14401;DHT22;7285;50.894;5.462;2024-01-27T08:16:07;-0.80;99.90
14401;DHT22;7285;50.894;5.462;2024-01-27T08:18:35;-0.80;99.90
14401;DHT22;7285;50.894;5.462;2024-01-27T08:21:04;-0.70;99.90
14401;DHT22;7285;50.894;5.462;2024-01-27T08:23:31;-0.70;99.90
14401;DHT22;7285;50.894;5.462;2024-01-27T08:26:00;-0.50;99.90
14401;DHT22;7285;50.894;5.462;2024-01-27T08:28:27;-0.50;99.90
14401;DHT22;7285;50.894;5.462;2024-01-27T08:30:54;-0.50;99.90
14401;DHT22;7285;50.894;5.462;2024-01-27T08:33:21;-0.40;99.90
14401;DHT22;7285;50.894;5.462;2024-01-27T08:35:48;-0.20;99.90
14401;DHT22;7285;50.894;5.462;2024-01-27T08:38:16;-0.10;99.90
14401;DHT22;7285;50.894;5.462;2024-01-27T08:40:43;0.00;99.90
14401;DHT22;7285;50.894;5.462;2024-01-27T08:43:11;0.10;99.90
14401;DHT22;7285;50.894;5.462;2024-01-27T08:45:38;0.30;99.90
14401;DHT22;7285;50.894;5.462;2024-01-27T08:48:07;0.40;99.90
14401;DHT22;7285;50.894;5.462;2024-01-27T08:50:35;0.50;99.90
14401;DHT22;7285;50.894;5.462;2024-01-27T08:53:02;0.60;99.90
14401;DHT22;7285;50.894;5.462;2024-01-27T08:55:29;0.90;99.90
14401;DHT22;7285;50.894;5.462;2024-01-27T08:57:56;1.00;99.90
14401;DHT22;7285;50.894;5.462;2024-01-27T09:00:24;1.10;99.90
14401;DHT22;7285;50.894;5.462;2024-01-27T09:02:52;1.30;99.90
14401;DHT22;7285;50.894;5.462;2024-01-27T09:05:19;1.60;99.90
14401;DHT22;7285;50.894;5.462;2024-01-27T09:07:46;1.60;99.90
14401;DHT22;7285;50.894;5.462;2024-01-27T09:10:13;1.90;99.90
14401;DHT22;7285;50.894;5.462;2024-01-27T09:12:41;2.10;99.90
14401;DHT22;7285;50.894;5.462;2024-01-27T09:15:08;2.30;99.90
14401;DHT22;7285;50.894;5.462;2024-01-27T09:17:37;2.40;99.90
14401;DHT22;7285;50.894;5.462;2024-01-27T09:20:06;2.60;99.90
14401;DHT22;7285;50.894;5.462;2024-01-27T09:22:33;2.80;99.90
14401;DHT22;7285;50.894;5.462;2024-01-27T09:25:00;2.90;99.90
14401;DHT22;7285;50.894;5.462;2024-01-27T09:27:26;3.00;99.90
14401;DHT22;7285;50.894;5.462;2024-01-27T09:29:53;3.10;99.90
14401;DHT22;7285;50.894;5.462;2024-01-27T09:32:20;3.20;99.90
14401;DHT22;7285;50.894;5.462;2024-01-27T09:34:49;3.40;99.90
14401;DHT22;7285;50.894;5.462;2024-01-27T09:37:18;3.50;99.90
14401;DHT22;7285;50.894;5.462;2024-01-27T09:39:45;3.60;99.90
14401;DHT22;7285;50.894;5.462;2024-01-27T09:42:13;3.60;88.40
14401;DHT22;7285;50.894;5.462;2024-01-27T09:44:43;3.70;83.40
14401;DHT22;7285;50.894;5.462;2024-01-27T09:47:11;3.70;42.40
14401;DHT22;7285;50.894;5.462;2024-01-27T09:49:39;3.80;17.00
14401;DHT22;7285;50.894;5.462;2024-01-27T09:52:08;4.00;6.90
14401;DHT22;7285;50.894;5.462;2024-01-27T09:54:35;4.20;1.00
14401;DHT22;7285;50.894;5.462;2024-01-27T09:57:03;4.40;1.00
14401;DHT22;7285;50.894;5.462;2024-01-27T09:59:33;4.50;1.00
14401;DHT22;7285;50.894;5.462;2024-01-27T10:02:00;4.70;1.00
14401;DHT22;7285;50.894;5.462;2024-01-27T10:04:29;4.90;1.00
14401;DHT22;7285;50.894;5.462;2024-01-27T10:06:58;5.00;1.00
14401;DHT22;7285;50.894;5.462;2024-01-27T10:09:26;5.10;1.00
14401;DHT22;7285;50.894;5.462;2024-01-27T10:11:54;5.40;1.00
14401;DHT22;7285;50.894;5.462;2024-01-27T10:14:22;5.60;1.00
14401;DHT22;7285;50.894;5.462;2024-01-27T10:16:49;5.80;1.00
14401;DHT22;7285;50.894;5.462;2024-01-27T10:19:17;5.90;1.00
14401;DHT22;7285;50.894;5.462;2024-01-27T10:21:44;6.10;1.00
14401;DHT22;7285;50.894;5.462;2024-01-27T10:24:11;6.40;1.00
14401;DHT22;7285;50.894;5.462;2024-01-27T10:26:39;6.50;1.00
14401;DHT22;7285;50.894;5.462;2024-01-27T10:29:06;6.70;99.90
14401;DHT22;7285;50.894;5.462;2024-01-27T10:31:34;6.90;99.90
14401;DHT22;7285;50.894;5.462;2024-01-27T10:34:02;7.20;99.90
14401;DHT22;7285;50.894;5.462;2024-01-27T10:36:38;7.30;28.70
14401;DHT22;7285;50.894;5.462;2024-01-27T10:39:15;7.20;1.00
14401;DHT22;7285;50.894;5.462;2024-01-27T10:41:45;7.50;99.90
14401;DHT22;7285;50.894;5.462;2024-01-27T10:44:14;7.90;1.00
14401;DHT22;7285;50.894;5.462;2024-01-27T10:46:43;8.10;1.00
14401;DHT22;7285;50.894;5.462;2024-01-27T10:49:12;8.30;1.00
14401;DHT22;7285;50.894;5.462;2024-01-27T10:51:43;8.50;1.00
14401;DHT22;7285;50.894;5.462;2024-01-27T10:54:14;8.50;1.00
14401;DHT22;7285;50.894;5.462;2024-01-27T10:56:45;8.60;99.90
14401;DHT22;7285;50.894;5.462;2024-01-27T10:59:13;8.90;1.00
14401;DHT22;7285;50.894;5.462;2024-01-27T11:01:41;9.00;99.90
14401;DHT22;7285;50.894;5.462;2024-01-27T11:04:11;9.30;99.90
14401;DHT22;7285;50.894;5.462;2024-01-27T11:06:40;9.60;1.00
14401;DHT22;7285;50.894;5.462;2024-01-27T11:09:10;9.90;1.00
14401;DHT22;7285;50.894;5.462;2024-01-27T11:11:39;10.40;99.90
14401;DHT22;7285;50.894;5.462;2024-01-27T11:14:09;10.40;1.00
14401;DHT22;7285;50.894;5.462;2024-01-27T11:16:36;10.80;1.00
14401;DHT22;7285;50.894;5.462;2024-01-27T11:19:09;11.20;99.90
14401;DHT22;7285;50.894;5.462;2024-01-27T11:21:36;11.20;99.90
14401;DHT22;7285;50.894;5.462;2024-01-27T11:24:13;11.30;1.00
14401;DHT22;7285;50.894;5.462;2024-01-27T11:26:40;11.40;1.00
14401;DHT22;7285;50.894;5.462;2024-01-27T11:29:08;11.50;99.90
14401;DHT22;7285;50.894;5.462;2024-01-27T11:31:45;11.30;1.00
14401;DHT22;7285;50.894;5.462;2024-01-27T11:34:12;12.00;99.90
14401;DHT22;7285;50.894;5.462;2024-01-27T11:36:42;12.70;1.00
14401;DHT22;7285;50.894;5.462;2024-01-27T11:39:26;13.10;1.00
14401;DHT22;7285;50.894;5.462;2024-01-27T11:42:03;13.30;1.00
14401;DHT22;7285;50.894;5.462;2024-01-27T11:44:33;13.00;99.90
14401;DHT22;7285;50.894;5.462;2024-01-27T11:47:00;13.50;99.90
14401;DHT22;7285;50.894;5.462;2024-01-27T11:49:28;13.50;11.40
14401;DHT22;7285;50.894;5.462;2024-01-27T11:51:55;13.70;1.00
14401;DHT22;7285;50.894;5.462;2024-01-27T11:54:23;13.50;1.00
14401;DHT22;7285;50.894;5.462;2024-01-27T11:56:50;13.80;1.00
14401;DHT22;7285;50.894;5.462;2024-01-27T11:59:17;15.00;99.90
14401;DHT22;7285;50.894;5.462;2024-01-27T12:01:45;15.20;99.90
14401;DHT22;7285;50.894;5.462;2024-01-27T12:04:12;15.60;1.00
14401;DHT22;7285;50.894;5.462;2024-01-27T12:06:40;15.90;99.90
14401;DHT22;7285;50.894;5.462;2024-01-27T12:09:07;15.80;99.90
14401;DHT22;7285;50.894;5.462;2024-01-27T12:11:38;16.20;99.90
14401;DHT22;7285;50.894;5.462;2024-01-27T12:14:05;15.80;1.00
14401;DHT22;7285;50.894;5.462;2024-01-27T12:16:32;16.70;1.00
14401;DHT22;7285;50.894;5.462;2024-01-27T12:19:01;15.20;99.90
14401;DHT22;7285;50.894;5.462;2024-01-27T12:21:28;13.80;1.00
14401;DHT22;7285;50.894;5.462;2024-01-27T12:23:56;13.50;99.90
14401;DHT22;7285;50.894;5.462;2024-01-27T12:26:25;13.50;99.90
14401;DHT22;7285;50.894;5.462;2024-01-27T12:28:54;14.10;99.90
14401;DHT22;7285;50.894;5.462;2024-01-27T12:31:22;14.20;1.00
14401;DHT22;7285;50.894;5.462;2024-01-27T12:33:50;13.10;1.00
14401;DHT22;7285;50.894;5.462;2024-01-27T12:36:19;12.40;1.00
14401;DHT22;7285;50.894;5.462;2024-01-27T12:38:48;12.00;1.00
14401;DHT22;7285;50.894;5.462;2024-01-27T12:41:19;11.70;1.00
14401;DHT22;7285;50.894;5.462;2024-01-27T12:43:45;11.50;1.00
14401;DHT22;7285;50.894;5.462;2024-01-27T12:46:12;11.40;1.00
14401;DHT22;7285;50.894;5.462;2024-01-27T12:48:40;11.60;1.00
14401;DHT22;7285;50.894;5.462;2024-01-27T12:51:07;11.40;1.00
14401;DHT22;7285;50.894;5.462;2024-01-27T12:53:38;11.30;1.00
14401;DHT22;7285;50.894;5.462;2024-01-27T12:56:07;11.10;1.00
14401;DHT22;7285;50.894;5.462;2024-01-27T12:58:34;11.00;1.00
14401;DHT22;7285;50.894;5.462;2024-01-27T13:01:01;10.90;1.00
14401;DHT22;7285;50.894;5.462;2024-01-27T13:03:28;10.70;1.00
14401;DHT22;7285;50.894;5.462;2024-01-27T13:05:56;10.50;1.00
14401;DHT22;7285;50.894;5.462;2024-01-27T13:08:23;10.40;1.00
14401;DHT22;7285;50.894;5.462;2024-01-27T13:10:51;10.30;99.90
14401;DHT22;7285;50.894;5.462;2024-01-27T13:13:18;10.30;99.90
14401;DHT22;7285;50.894;5.462;2024-01-27T13:15:45;10.40;99.90
14401;DHT22;7285;50.894;5.462;2024-01-27T13:18:12;10.70;99.90
14401;DHT22;7285;50.894;5.462;2024-01-27T13:20:39;11.50;99.90
14401;DHT22;7285;50.894;5.462;2024-01-27T13:23:07;13.00;99.90
14401;DHT22;7285;50.894;5.462;2024-01-27T13:25:34;13.50;99.90
14401;DHT22;7285;50.894;5.462;2024-01-27T13:28:02;13.90;99.90
14401;DHT22;7285;50.894;5.462;2024-01-27T13:30:29;14.20;99.90
14401;DHT22;7285;50.894;5.462;2024-01-27T13:32:56;13.90;1.00
14401;DHT22;7285;50.894;5.462;2024-01-27T13:35:23;13.80;1.00
14401;DHT22;7285;50.894;5.462;2024-01-27T13:37:51;13.00;1.00
14401;DHT22;7285;50.894;5.462;2024-01-27T13:40:18;12.40;1.00
14401;DHT22;7285;50.894;5.462;2024-01-27T13:42:45;11.90;1.00
14401;DHT22;7285;50.894;5.462;2024-01-27T13:45:13;11.50;1.00
14401;DHT22;7285;50.894;5.462;2024-01-27T13:47:40;11.20;1.00
14401;DHT22;7285;50.894;5.462;2024-01-27T13:50:08;10.70;1.00
14401;DHT22;7285;50.894;5.462;2024-01-27T13:52:35;10.20;1.00
14401;DHT22;7285;50.894;5.462;2024-01-27T13:55:03;10.30;1.00
14401;DHT22;7285;50.894;5.462;2024-01-27T13:57:30;10.30;1.00
14401;DHT22;7285;50.894;5.462;2024-01-27T13:59:59;10.20;1.00
14401;DHT22;7285;50.894;5.462;2024-01-27T14:02:27;10.10;1.00
14401;DHT22;7285;50.894;5.462;2024-01-27T14:04:54;9.90;1.00
14401;DHT22;7285;50.894;5.462;2024-01-27T14:07:21;9.70;1.00
14401;DHT22;7285;50.894;5.462;2024-01-27T14:09:48;9.60;1.00
14401;DHT22;7285;50.894;5.462;2024-01-27T14:12:15;9.60;3.90
14401;DHT22;7285;50.894;5.462;2024-01-27T14:14:42;9.50;1.00
14401;DHT22;7285;50.894;5.462;2024-01-27T14:17:10;9.40;6.60
14401;DHT22;7285;50.894;5.462;2024-01-27T14:19:38;9.30;1.00
14401;DHT22;7285;50.894;5.462;2024-01-27T14:22:05;9.20;44.50
14401;DHT22;7285;50.894;5.462;2024-01-27T14:24:32;9.10;1.00
14401;DHT22;7285;50.894;5.462;2024-01-27T14:26:59;9.00;14.20
14401;DHT22;7285;50.894;5.462;2024-01-27T14:29:27;9.00;61.20
14401;DHT22;7285;50.894;5.462;2024-01-27T14:31:53;8.90;99.90
14401;DHT22;7285;50.894;5.462;2024-01-27T14:34:21;8.70;99.90
14401;DHT22;7285;50.894;5.462;2024-01-27T14:36:49;8.70;99.90
14401;DHT22;7285;50.894;5.462;2024-01-27T14:39:15;8.60;99.90
14401;DHT22;7285;50.894;5.462;2024-01-27T14:41:42;8.70;1.00
14401;DHT22;7285;50.894;5.462;2024-01-27T14:44:09;8.70;1.00
14401;DHT22;7285;50.894;5.462;2024-01-27T14:46:36;8.70;1.00
14401;DHT22;7285;50.894;5.462;2024-01-27T14:49:06;8.70;1.00
14401;DHT22;7285;50.894;5.462;2024-01-27T14:51:33;8.80;1.00
14401;DHT22;7285;50.894;5.462;2024-01-27T14:54:01;8.70;1.00
14401;DHT22;7285;50.894;5.462;2024-01-27T14:56:31;8.60;1.00
14401;DHT22;7285;50.894;5.462;2024-01-27T14:58:58;8.60;99.90
14401;DHT22;7285;50.894;5.462;2024-01-27T15:01:26;8.60;1.00
14401;DHT22;7285;50.894;5.462;2024-01-27T15:03:53;8.50;1.00
14401;DHT22;7285;50.894;5.462;2024-01-27T15:06:20;8.40;1.00
14401;DHT22;7285;50.894;5.462;2024-01-27T15:08:47;8.40;99.90
14401;DHT22;7285;50.894;5.462;2024-01-27T15:11:16;8.40;1.00
14401;DHT22;7285;50.894;5.462;2024-01-27T15:13:43;8.40;99.90
14401;DHT22;7285;50.894;5.462;2024-01-27T15:16:09;8.40;99.90
14401;DHT22;7285;50.894;5.462;2024-01-27T15:18:37;8.30;99.90
14401;DHT22;7285;50.894;5.462;2024-01-27T15:21:06;8.30;1.00
14401;DHT22;7285;50.894;5.462;2024-01-27T15:23:33;8.20;1.00
14401;DHT22;7285;50.894;5.462;2024-01-27T15:26:02;8.20;1.00
14401;DHT22;7285;50.894;5.462;2024-01-27T15:28:30;8.10;99.90
14401;DHT22;7285;50.894;5.462;2024-01-27T15:30:57;8.00;99.90
14401;DHT22;7285;50.894;5.462;2024-01-27T15:33:24;8.00;1.00
14401;DHT22;7285;50.894;5.462;2024-01-27T15:35:51;7.90;49.00
14401;DHT22;7285;50.894;5.462;2024-01-27T15:38:18;7.80;99.90
14401;DHT22;7285;50.894;5.462;2024-01-27T15:40:45;7.70;1.00
14401;DHT22;7285;50.894;5.462;2024-01-27T15:43:12;7.60;1.00
14401;DHT22;7285;50.894;5.462;2024-01-27T15:45:40;7.50;99.90
14401;DHT22;7285;50.894;5.462;2024-01-27T15:48:07;7.40;1.00
14401;DHT22;7285;50.894;5.462;2024-01-27T15:50:37;7.30;1.00
14401;DHT22;7285;50.894;5.462;2024-01-27T15:53:04;7.20;99.90
14401;DHT22;7285;50.894;5.462;2024-01-27T15:55:32;7.20;99.90
14401;DHT22;7285;50.894;5.462;2024-01-27T15:57:59;7.10;99.90
14401;DHT22;7285;50.894;5.462;2024-01-27T16:00:26;7.00;99.90